sensor_id;sensor_type;location;lat;lon;timestamp;temperature;humidity
9448;DHT22;4762;48.128;11.376;2022-08-01T00:01:42;22.00;68.20
9448;DHT22;4762;48.128;11.376;2022-08-01T00:03:44;21.90;68.30
9448;DHT22;4762;48.128;11.376;2022-08-01T00:05:47;21.90;68.50
9448;DHT22;4762;48.128;11.376;2022-08-01T00:07:49;21.80;68.70
9448;DHT22;4762;48.128;11.376;2022-08-01T00:09:54;21.90;68.70
9448;DHT22;4762;48.128;11.376;2022-08-01T00:11:56;21.70;69.10
9448;DHT22;4762;48.128;11.376;2022-08-01T00:14:00;21.80;69.10
9448;DHT22;4762;48.128;11.376;2022-08-01T00:16:03;21.70;69.20
9448;DHT22;4762;48.128;11.376;2022-08-01T00:18:06;21.70;69.30
9448;DHT22;4762;48.128;11.376;2022-08-01T00:20:09;21.60;69.60
9448;DHT22;4762;48.128;11.376;2022-08-01T00:22:13;21.60;69.80
9448;DHT22;4762;48.128;11.376;2022-08-01T00:24:16;21.40;69.80
9448;DHT22;4762;48.128;11.376;2022-08-01T00:26:18;21.40;70.10
9448;DHT22;4762;48.128;11.376;2022-08-01T00:28:22;21.40;70.40
9448;DHT22;4762;48.128;11.376;2022-08-01T00:30:24;21.40;70.10
9448;DHT22;4762;48.128;11.376;2022-08-01T00:32:27;21.30;70.50
9448;DHT22;4762;48.128;11.376;2022-08-01T00:34:30;21.30;70.20
9448;DHT22;4762;48.128;11.376;2022-08-01T00:36:33;21.30;70.50
9448;DHT22;4762;48.128;11.376;2022-08-01T00:38:37;21.20;70.50
9448;DHT22;4762;48.128;11.376;2022-08-01T00:40:41;21.40;70.50
9448;DHT22;4762;48.128;11.376;2022-08-01T00:42:43;21.30;70.30
9448;DHT22;4762;48.128;11.376;2022-08-01T00:44:47;21.20;70.40
9448;DHT22;4762;48.128;11.376;2022-08-01T00:46:49;21.30;70.40
9448;DHT22;4762;48.128;11.376;2022-08-01T00:48:51;21.30;70.60
9448;DHT22;4762;48.128;11.376;2022-08-01T00:50:53;21.20;70.60
9448;DHT22;4762;48.128;11.376;2022-08-01T00:52:57;21.20;70.80
9448;DHT22;4762;48.128;11.376;2022-08-01T00:55:00;21.10;71.00
9448;DHT22;4762;48.128;11.376;2022-08-01T00:57:04;21.00;70.90
9448;DHT22;4762;48.128;11.376;2022-08-01T00:59:07;21.00;70.60
9448;DHT22;4762;48.128;11.376;2022-08-01T01:01:10;21.00;70.70
9448;DHT22;4762;48.128;11.376;2022-08-01T01:03:13;21.00;70.80
9448;DHT22;4762;48.128;11.376;2022-08-01T01:05:16;21.00;70.90
9448;DHT22;4762;48.128;11.376;2022-08-01T01:07:30;20.90;70.70
9448;DHT22;4762;48.128;11.376;2022-08-01T01:11:57;20.80;71.50
9448;DHT22;4762;48.128;11.376;2022-08-01T01:13:57;20.70;71.90
9448;DHT22;4762;48.128;11.376;2022-08-01T01:16:00;20.70;72.20
9448;DHT22;4762;48.128;11.376;2022-08-01T01:18:07;20.70;72.20
9448;DHT22;4762;48.128;11.376;2022-08-01T01:20:07;20.70;72.30
9448;DHT22;4762;48.128;11.376;2022-08-01T01:22:33;20.60;72.30
9448;DHT22;4762;48.128;11.376;2022-08-01T01:24:37;20.60;72.30
9448;DHT22;4762;48.128;11.376;2022-08-01T01:26:43;20.50;72.80
9448;DHT22;4762;48.128;11.376;2022-08-01T01:31:06;20.40;72.60
9448;DHT22;4762;48.128;11.376;2022-08-01T01:33:09;20.40;73.10
9448;DHT22;4762;48.128;11.376;2022-08-01T01:35:15;20.40;72.70
9448;DHT22;4762;48.128;11.376;2022-08-01T01:37:18;20.30;72.80
9448;DHT22;4762;48.128;11.376;2022-08-01T01:39:19;20.30;73.10
9448;DHT22;4762;48.128;11.376;2022-08-01T01:41:22;20.30;72.90
9448;DHT22;4762;48.128;11.376;2022-08-01T01:43:24;20.30;72.60
9448;DHT22;4762;48.128;11.376;2022-08-01T01:45:26;20.40;73.10
9448;DHT22;4762;48.128;11.376;2022-08-01T01:47:29;20.40;72.70
9448;DHT22;4762;48.128;11.376;2022-08-01T01:49:31;20.40;72.70
9448;DHT22;4762;48.128;11.376;2022-08-01T01:51:33;20.40;72.30
9448;DHT22;4762;48.128;11.376;2022-08-01T01:53:36;20.50;72.20
9448;DHT22;4762;48.128;11.376;2022-08-01T01:55:38;20.60;72.00
9448;DHT22;4762;48.128;11.376;2022-08-01T01:57:41;20.60;72.20
9448;DHT22;4762;48.128;11.376;2022-08-01T01:59:44;20.60;72.00
9448;DHT22;4762;48.128;11.376;2022-08-01T02:19:04;20.60;71.30
9448;DHT22;4762;48.128;11.376;2022-08-01T02:21:08;20.60;71.40
9448;DHT22;4762;48.128;11.376;2022-08-01T02:23:11;20.60;71.50
9448;DHT22;4762;48.128;11.376;2022-08-01T02:25:24;20.50;71.30
9448;DHT22;4762;48.128;11.376;2022-08-01T02:27:30;20.40;71.70
9448;DHT22;4762;48.128;11.376;2022-08-01T02:29:36;20.40;71.50
9448;DHT22;4762;48.128;11.376;2022-08-01T02:31:36;20.40;71.90
9448;DHT22;4762;48.128;11.376;2022-08-01T02:33:42;20.40;71.70
9448;DHT22;4762;48.128;11.376;2022-08-01T02:35:43;20.40;71.60
9448;DHT22;4762;48.128;11.376;2022-08-01T02:37:47;20.30;72.20
9448;DHT22;4762;48.128;11.376;2022-08-01T02:39:50;20.30;72.00
9448;DHT22;4762;48.128;11.376;2022-08-01T02:41:52;20.30;72.10
9448;DHT22;4762;48.128;11.376;2022-08-01T02:46:24;20.20;72.50
9448;DHT22;4762;48.128;11.376;2022-08-01T02:48:25;20.20;72.50
9448;DHT22;4762;48.128;11.376;2022-08-01T02:52:55;20.20;72.30
9448;DHT22;4762;48.128;11.376;2022-08-01T02:54:57;20.10;72.20
9448;DHT22;4762;48.128;11.376;2022-08-01T02:57:00;20.10;72.20
9448;DHT22;4762;48.128;11.376;2022-08-01T02:59:09;20.10;71.90
9448;DHT22;4762;48.128;11.376;2022-08-01T03:01:13;20.10;72.10
9448;DHT22;4762;48.128;11.376;2022-08-01T03:03:18;20.10;72.30
9448;DHT22;4762;48.128;11.376;2022-08-01T03:05:21;20.10;72.60
9448;DHT22;4762;48.128;11.376;2022-08-01T03:07:23;20.10;72.20
9448;DHT22;4762;48.128;11.376;2022-08-01T03:09:26;20.10;72.20
9448;DHT22;4762;48.128;11.376;2022-08-01T03:11:28;20.10;72.10
9448;DHT22;4762;48.128;11.376;2022-08-01T03:13:31;20.10;72.50
9448;DHT22;4762;48.128;11.376;2022-08-01T03:15:35;20.10;72.50
9448;DHT22;4762;48.128;11.376;2022-08-01T03:17:37;20.00;72.60
9448;DHT22;4762;48.128;11.376;2022-08-01T03:19:39;20.00;72.60
9448;DHT22;4762;48.128;11.376;2022-08-01T03:21:42;19.90;72.90
9448;DHT22;4762;48.128;11.376;2022-08-01T03:23:44;19.90;73.10
9448;DHT22;4762;48.128;11.376;2022-08-01T03:43:05;19.60;74.30
9448;DHT22;4762;48.128;11.376;2022-08-01T03:45:08;19.60;74.30
9448;DHT22;4762;48.128;11.376;2022-08-01T03:47:12;19.60;74.80
9448;DHT22;4762;48.128;11.376;2022-08-01T03:49:28;19.50;74.40
9448;DHT22;4762;48.128;11.376;2022-08-01T03:51:20;19.60;74.70
9448;DHT22;4762;48.128;11.376;2022-08-01T03:53:23;19.50;75.00
9448;DHT22;4762;48.128;11.376;2022-08-01T03:55:24;19.40;75.10
9448;DHT22;4762;48.128;11.376;2022-08-01T03:57:28;19.50;75.20
9448;DHT22;4762;48.128;11.376;2022-08-01T03:59:39;19.40;75.50
9448;DHT22;4762;48.128;11.376;2022-08-01T04:01:43;19.40;75.30
9448;DHT22;4762;48.128;11.376;2022-08-01T04:03:46;19.40;75.40
9448;DHT22;4762;48.128;11.376;2022-08-01T04:05:50;19.50;75.30
9448;DHT22;4762;48.128;11.376;2022-08-01T04:07:54;19.40;75.70
9448;DHT22;4762;48.128;11.376;2022-08-01T04:09:58;19.40;75.40
9448;DHT22;4762;48.128;11.376;2022-08-01T04:12:00;19.40;75.40
9448;DHT22;4762;48.128;11.376;2022-08-01T04:14:02;19.40;75.30
9448;DHT22;4762;48.128;11.376;2022-08-01T04:16:05;19.30;75.40
9448;DHT22;4762;48.128;11.376;2022-08-01T04:18:09;19.40;75.40
9448;DHT22;4762;48.128;11.376;2022-08-01T04:20:12;19.30;75.60
9448;DHT22;4762;48.128;11.376;2022-08-01T04:22:14;19.30;75.50
9448;DHT22;4762;48.128;11.376;2022-08-01T04:24:17;19.30;75.50
9448;DHT22;4762;48.128;11.376;2022-08-01T04:26:19;19.40;75.40
9448;DHT22;4762;48.128;11.376;2022-08-01T04:28:22;19.50;75.10
9448;DHT22;4762;48.128;11.376;2022-08-01T04:30:27;19.50;75.20
9448;DHT22;4762;48.128;11.376;2022-08-01T04:32:31;19.50;75.30
9448;DHT22;4762;48.128;11.376;2022-08-01T04:51:51;19.50;75.30
9448;DHT22;4762;48.128;11.376;2022-08-01T04:53:53;19.60;75.30
9448;DHT22;4762;48.128;11.376;2022-08-01T04:55:56;19.50;75.40
9448;DHT22;4762;48.128;11.376;2022-08-01T04:58:01;19.60;75.50
9448;DHT22;4762;48.128;11.376;2022-08-01T05:00:04;19.60;75.40
9448;DHT22;4762;48.128;11.376;2022-08-01T05:02:13;19.70;75.50
9448;DHT22;4762;48.128;11.376;2022-08-01T05:04:14;19.80;75.00
9448;DHT22;4762;48.128;11.376;2022-08-01T05:06:17;19.90;75.00
9448;DHT22;4762;48.128;11.376;2022-08-01T05:08:20;20.10;75.00
9448;DHT22;4762;48.128;11.376;2022-08-01T05:10:24;20.10;75.00
9448;DHT22;4762;48.128;11.376;2022-08-01T05:12:28;20.20;74.80
9448;DHT22;4762;48.128;11.376;2022-08-01T05:14:31;20.20;74.00
9448;DHT22;4762;48.128;11.376;2022-08-01T05:16:35;20.30;74.20
9448;DHT22;4762;48.128;11.376;2022-08-01T05:35:57;21.10;71.40
9448;DHT22;4762;48.128;11.376;2022-08-01T05:38:00;21.20;71.50
9448;DHT22;4762;48.128;11.376;2022-08-01T05:40:02;21.10;71.80
9448;DHT22;4762;48.128;11.376;2022-08-01T05:42:05;21.30;71.80
9448;DHT22;4762;48.128;11.376;2022-08-01T05:44:08;21.30;70.40
9448;DHT22;4762;48.128;11.376;2022-08-01T05:46:16;21.10;71.20
9448;DHT22;4762;48.128;11.376;2022-08-01T05:48:19;21.30;71.50
9448;DHT22;4762;48.128;11.376;2022-08-01T05:50:22;21.30;71.00
9448;DHT22;4762;48.128;11.376;2022-08-01T05:52:25;21.40;70.40
9448;DHT22;4762;48.128;11.376;2022-08-01T05:54:27;21.20;70.90
9448;DHT22;4762;48.128;11.376;2022-08-01T05:56:30;21.50;70.70
9448;DHT22;4762;48.128;11.376;2022-08-01T05:58:32;21.80;69.90
9448;DHT22;4762;48.128;11.376;2022-08-01T06:00:34;21.70;70.30
9448;DHT22;4762;48.128;11.376;2022-08-01T06:02:40;21.90;71.10
9448;DHT22;4762;48.128;11.376;2022-08-01T06:04:43;22.00;70.10
9448;DHT22;4762;48.128;11.376;2022-08-01T06:06:45;22.00;69.20
9448;DHT22;4762;48.128;11.376;2022-08-01T06:08:48;21.80;69.00
9448;DHT22;4762;48.128;11.376;2022-08-01T06:11:01;22.20;68.50
9448;DHT22;4762;48.128;11.376;2022-08-01T06:13:04;22.50;68.60
9448;DHT22;4762;48.128;11.376;2022-08-01T06:15:08;22.40;68.50
9448;DHT22;4762;48.128;11.376;2022-08-01T06:17:11;22.40;68.00
9448;DHT22;4762;48.128;11.376;2022-08-01T06:19:14;22.20;68.40
9448;DHT22;4762;48.128;11.376;2022-08-01T06:21:16;22.40;68.50
9448;DHT22;4762;48.128;11.376;2022-08-01T06:23:20;22.40;68.60
9448;DHT22;4762;48.128;11.376;2022-08-01T06:25:24;22.50;68.30
9448;DHT22;4762;48.128;11.376;2022-08-01T06:27:27;22.60;67.60
9448;DHT22;4762;48.128;11.376;2022-08-01T06:29:32;22.90;67.70
9448;DHT22;4762;48.128;11.376;2022-08-01T06:31:34;23.40;67.80
9448;DHT22;4762;48.128;11.376;2022-08-01T06:33:37;23.60;65.80
9448;DHT22;4762;48.128;11.376;2022-08-01T06:35:40;23.50;66.30
9448;DHT22;4762;48.128;11.376;2022-08-01T06:57:29;25.60;62.30
9448;DHT22;4762;48.128;11.376;2022-08-01T06:59:32;26.00;59.90
9448;DHT22;4762;48.128;11.376;2022-08-01T07:01:35;25.20;60.40
9448;DHT22;4762;48.128;11.376;2022-08-01T07:03:37;25.20;61.30
9448;DHT22;4762;48.128;11.376;2022-08-01T07:05:39;25.40;61.50
9448;DHT22;4762;48.128;11.376;2022-08-01T07:07:42;25.60;59.40
9448;DHT22;4762;48.128;11.376;2022-08-01T07:09:44;25.50;59.90
9448;DHT22;4762;48.128;11.376;2022-08-01T07:11:47;25.60;60.70
9448;DHT22;4762;48.128;11.376;2022-08-01T07:13:50;25.40;60.30
9448;DHT22;4762;48.128;11.376;2022-08-01T07:15:54;25.40;61.10
9448;DHT22;4762;48.128;11.376;2022-08-01T07:17:57;25.70;61.90
9448;DHT22;4762;48.128;11.376;2022-08-01T07:20:01;26.60;57.70
9448;DHT22;4762;48.128;11.376;2022-08-01T07:22:02;26.60;58.00
9448;DHT22;4762;48.128;11.376;2022-08-01T07:24:06;26.40;60.20
9448;DHT22;4762;48.128;11.376;2022-08-01T07:30:52;26.60;57.60
9448;DHT22;4762;48.128;11.376;2022-08-01T07:32:55;26.80;57.70
9448;DHT22;4762;48.128;11.376;2022-08-01T07:34:57;26.90;57.40
9448;DHT22;4762;48.128;11.376;2022-08-01T07:37:00;27.60;56.80
9448;DHT22;4762;48.128;11.376;2022-08-01T07:39:06;27.80;56.50
9448;DHT22;4762;48.128;11.376;2022-08-01T07:41:08;26.90;56.70
9448;DHT22;4762;48.128;11.376;2022-08-01T07:43:11;26.50;57.80
9448;DHT22;4762;48.128;11.376;2022-08-01T07:45:14;26.70;57.20
9448;DHT22;4762;48.128;11.376;2022-08-01T07:47:16;27.40;56.10
9448;DHT22;4762;48.128;11.376;2022-08-01T07:49:19;27.30;56.50
9448;DHT22;4762;48.128;11.376;2022-08-01T07:51:23;27.40;57.10
9448;DHT22;4762;48.128;11.376;2022-08-01T07:53:25;27.60;57.00
9448;DHT22;4762;48.128;11.376;2022-08-01T07:55:28;27.40;56.40
9448;DHT22;4762;48.128;11.376;2022-08-01T07:57:32;28.40;55.80
9448;DHT22;4762;48.128;11.376;2022-08-01T07:59:34;28.20;56.20
9448;DHT22;4762;48.128;11.376;2022-08-01T08:01:37;27.80;55.60
9448;DHT22;4762;48.128;11.376;2022-08-01T08:03:41;28.30;56.10
9448;DHT22;4762;48.128;11.376;2022-08-01T08:05:44;28.30;56.00
9448;DHT22;4762;48.128;11.376;2022-08-01T08:07:47;28.20;55.60
9448;DHT22;4762;48.128;11.376;2022-08-01T08:09:51;28.70;55.20
9448;DHT22;4762;48.128;11.376;2022-08-01T08:11:54;27.90;55.10
9448;DHT22;4762;48.128;11.376;2022-08-01T08:13:57;28.20;56.30
9448;DHT22;4762;48.128;11.376;2022-08-01T08:18:15;29.10;53.80
9448;DHT22;4762;48.128;11.376;2022-08-01T08:20:17;29.10;52.40
9448;DHT22;4762;48.128;11.376;2022-08-01T08:22:20;29.30;54.40
9448;DHT22;4762;48.128;11.376;2022-08-01T08:24:22;29.30;53.00
9448;DHT22;4762;48.128;11.376;2022-08-01T08:26:29;28.90;54.80
9448;DHT22;4762;48.128;11.376;2022-08-01T08:28:31;28.60;53.10
9448;DHT22;4762;48.128;11.376;2022-08-01T08:30:35;29.00;54.10
9448;DHT22;4762;48.128;11.376;2022-08-01T08:32:37;28.50;55.20
9448;DHT22;4762;48.128;11.376;2022-08-01T08:34:44;28.60;53.60
9448;DHT22;4762;48.128;11.376;2022-08-01T08:41:39;27.70;54.70
9448;DHT22;4762;48.128;11.376;2022-08-01T08:43:41;28.40;55.50
9448;DHT22;4762;48.128;11.376;2022-08-01T08:45:44;28.90;54.60
9448;DHT22;4762;48.128;11.376;2022-08-01T08:47:49;30.20;51.80
9448;DHT22;4762;48.128;11.376;2022-08-01T08:49:52;29.40;52.00
9448;DHT22;4762;48.128;11.376;2022-08-01T08:51:58;29.70;53.00
9448;DHT22;4762;48.128;11.376;2022-08-01T08:53:59;29.60;51.70
9448;DHT22;4762;48.128;11.376;2022-08-01T08:56:02;29.90;50.80
9448;DHT22;4762;48.128;11.376;2022-08-01T08:58:04;29.30;52.30
9448;DHT22;4762;48.128;11.376;2022-08-01T09:00:13;29.30;51.90
9448;DHT22;4762;48.128;11.376;2022-08-01T09:02:15;29.20;51.50
9448;DHT22;4762;48.128;11.376;2022-08-01T09:04:20;28.20;53.90
9448;DHT22;4762;48.128;11.376;2022-08-01T09:06:23;28.20;53.60
9448;DHT22;4762;48.128;11.376;2022-08-01T09:08:26;29.30;51.60
9448;DHT22;4762;48.128;11.376;2022-08-01T09:10:29;28.50;52.30
9448;DHT22;4762;48.128;11.376;2022-08-01T09:12:31;28.70;52.90
9448;DHT22;4762;48.128;11.376;2022-08-01T09:14:35;29.00;53.60
9448;DHT22;4762;48.128;11.376;2022-08-01T09:16:40;30.10;51.50
9448;DHT22;4762;48.128;11.376;2022-08-01T09:18:40;30.90;50.10
9448;DHT22;4762;48.128;11.376;2022-08-01T09:38:14;30.20;50.10
9448;DHT22;4762;48.128;11.376;2022-08-01T09:40:16;30.30;49.90
9448;DHT22;4762;48.128;11.376;2022-08-01T09:42:20;29.90;50.90
9448;DHT22;4762;48.128;11.376;2022-08-01T10:01:42;30.90;48.60
9448;DHT22;4762;48.128;11.376;2022-08-01T10:03:43;30.80;47.20
9448;DHT22;4762;48.128;11.376;2022-08-01T10:05:45;30.40;48.50
9448;DHT22;4762;48.128;11.376;2022-08-01T10:07:56;30.40;48.50
9448;DHT22;4762;48.128;11.376;2022-08-01T10:10:14;31.00;47.70
9448;DHT22;4762;48.128;11.376;2022-08-01T10:12:17;31.30;46.40
9448;DHT22;4762;48.128;11.376;2022-08-01T10:14:18;32.50;45.70
9448;DHT22;4762;48.128;11.376;2022-08-01T10:16:20;31.00;47.70
9448;DHT22;4762;48.128;11.376;2022-08-01T10:18:23;31.50;46.40
9448;DHT22;4762;48.128;11.376;2022-08-01T10:20:27;31.10;48.20
9448;DHT22;4762;48.128;11.376;2022-08-01T10:22:28;32.40;46.40
9448;DHT22;4762;48.128;11.376;2022-08-01T10:24:30;32.10;45.40
9448;DHT22;4762;48.128;11.376;2022-08-01T10:26:33;31.30;47.90
9448;DHT22;4762;48.128;11.376;2022-08-01T10:28:36;31.90;45.90
9448;DHT22;4762;48.128;11.376;2022-08-01T10:30:41;31.90;45.40
9448;DHT22;4762;48.128;11.376;2022-08-01T10:32:42;31.40;46.40
9448;DHT22;4762;48.128;11.376;2022-08-01T10:34:44;30.90;47.80
9448;DHT22;4762;48.128;11.376;2022-08-01T10:36:49;31.20;46.80
9448;DHT22;4762;48.128;11.376;2022-08-01T10:38:53;30.60;47.30
9448;DHT22;4762;48.128;11.376;2022-08-01T10:40:56;30.90;48.70
9448;DHT22;4762;48.128;11.376;2022-08-01T10:43:00;31.50;47.00
9448;DHT22;4762;48.128;11.376;2022-08-01T10:45:02;32.40;45.30
9448;DHT22;4762;48.128;11.376;2022-08-01T10:47:10;31.80;46.30
9448;DHT22;4762;48.128;11.376;2022-08-01T10:49:14;33.20;44.90
9448;DHT22;4762;48.128;11.376;2022-08-01T10:51:15;32.60;44.80
9448;DHT22;4762;48.128;11.376;2022-08-01T10:53:20;31.80;46.70
9448;DHT22;4762;48.128;11.376;2022-08-01T10:55:23;31.20;46.90
9448;DHT22;4762;48.128;11.376;2022-08-01T10:57:25;32.00;46.20
9448;DHT22;4762;48.128;11.376;2022-08-01T11:07:05;31.90;45.10
9448;DHT22;4762;48.128;11.376;2022-08-01T11:09:20;31.90;45.60
9448;DHT22;4762;48.128;11.376;2022-08-01T11:11:24;30.60;47.00
9448;DHT22;4762;48.128;11.376;2022-08-01T11:15:41;31.00;46.30
9448;DHT22;4762;48.128;11.376;2022-08-01T11:17:44;30.80;46.40
9448;DHT22;4762;48.128;11.376;2022-08-01T11:22:00;31.30;46.70
9448;DHT22;4762;48.128;11.376;2022-08-01T11:24:04;31.50;47.20
9448;DHT22;4762;48.128;11.376;2022-08-01T11:26:08;32.20;45.90
9448;DHT22;4762;48.128;11.376;2022-08-01T11:28:22;32.00;43.70
9448;DHT22;4762;48.128;11.376;2022-08-01T11:30:26;31.60;45.70
9448;DHT22;4762;48.128;11.376;2022-08-01T11:32:28;32.70;43.50
9448;DHT22;4762;48.128;11.376;2022-08-01T11:34:52;32.20;43.80
9448;DHT22;4762;48.128;11.376;2022-08-01T11:37:22;32.80;43.60
9448;DHT22;4762;48.128;11.376;2022-08-01T11:39:14;32.50;43.20
9448;DHT22;4762;48.128;11.376;2022-08-01T11:41:17;32.90;43.80
9448;DHT22;4762;48.128;11.376;2022-08-01T11:43:20;32.10;43.40
9448;DHT22;4762;48.128;11.376;2022-08-01T11:45:24;32.20;43.70
9448;DHT22;4762;48.128;11.376;2022-08-01T11:47:46;32.00;44.70
9448;DHT22;4762;48.128;11.376;2022-08-01T11:49:51;32.00;43.40
9448;DHT22;4762;48.128;11.376;2022-08-01T11:52:04;31.50;45.10
9448;DHT22;4762;48.128;11.376;2022-08-01T11:54:05;32.80;42.80
9448;DHT22;4762;48.128;11.376;2022-08-01T11:56:07;33.10;43.70
9448;DHT22;4762;48.128;11.376;2022-08-01T11:58:11;33.20;42.10
9448;DHT22;4762;48.128;11.376;2022-08-01T12:00:21;33.70;42.30
9448;DHT22;4762;48.128;11.376;2022-08-01T12:02:29;34.40;40.70
9448;DHT22;4762;48.128;11.376;2022-08-01T12:04:53;34.40;41.30
9448;DHT22;4762;48.128;11.376;2022-08-01T12:06:54;33.90;40.20
9448;DHT22;4762;48.128;11.376;2022-08-01T12:09:14;35.20;39.60
9448;DHT22;4762;48.128;11.376;2022-08-01T12:11:01;34.80;38.80
9448;DHT22;4762;48.128;11.376;2022-08-01T12:13:04;33.80;40.80
9448;DHT22;4762;48.128;11.376;2022-08-01T12:15:07;33.10;40.30
9448;DHT22;4762;48.128;11.376;2022-08-01T12:19:44;33.50;40.30
9448;DHT22;4762;48.128;11.376;2022-08-01T12:22:21;34.40;40.30
9448;DHT22;4762;48.128;11.376;2022-08-01T12:24:04;34.30;40.20
9448;DHT22;4762;48.128;11.376;2022-08-01T12:26:07;33.90;39.70
9448;DHT22;4762;48.128;11.376;2022-08-01T12:28:11;34.80;38.70
9448;DHT22;4762;48.128;11.376;2022-08-01T12:30:17;33.60;39.60
9448;DHT22;4762;48.128;11.376;2022-08-01T12:32:27;33.70;39.10
9448;DHT22;4762;48.128;11.376;2022-08-01T12:34:33;33.40;40.70
9448;DHT22;4762;48.128;11.376;2022-08-01T12:36:39;33.10;39.20
9448;DHT22;4762;48.128;11.376;2022-08-01T12:38:42;32.40;40.30
9448;DHT22;4762;48.128;11.376;2022-08-01T12:40:45;32.90;42.30
9448;DHT22;4762;48.128;11.376;2022-08-01T12:42:53;33.90;40.70
9448;DHT22;4762;48.128;11.376;2022-08-01T12:44:56;35.00;39.60
9448;DHT22;4762;48.128;11.376;2022-08-01T12:47:03;34.80;39.20
9448;DHT22;4762;48.128;11.376;2022-08-01T12:49:08;34.10;39.50
9448;DHT22;4762;48.128;11.376;2022-08-01T12:51:13;34.40;39.50
9448;DHT22;4762;48.128;11.376;2022-08-01T12:53:17;34.90;37.60
9448;DHT22;4762;48.128;11.376;2022-08-01T12:55:22;34.10;39.50
9448;DHT22;4762;48.128;11.376;2022-08-01T12:57:24;34.60;38.10
9448;DHT22;4762;48.128;11.376;2022-08-01T12:59:27;32.70;39.50
9448;DHT22;4762;48.128;11.376;2022-08-01T13:01:28;33.80;39.50
9448;DHT22;4762;48.128;11.376;2022-08-01T13:03:31;33.50;40.50
9448;DHT22;4762;48.128;11.376;2022-08-01T13:05:42;32.60;39.90
9448;DHT22;4762;48.128;11.376;2022-08-01T13:07:45;32.20;40.80
9448;DHT22;4762;48.128;11.376;2022-08-01T13:09:51;31.70;42.30
9448;DHT22;4762;48.128;11.376;2022-08-01T13:11:53;30.60;45.00
9448;DHT22;4762;48.128;11.376;2022-08-01T13:13:56;30.50;45.70
9448;DHT22;4762;48.128;11.376;2022-08-01T13:16:03;31.10;45.90
9448;DHT22;4762;48.128;11.376;2022-08-01T13:20:21;30.50;46.40
9448;DHT22;4762;48.128;11.376;2022-08-01T13:22:38;30.20;48.90
9448;DHT22;4762;48.128;11.376;2022-08-01T13:24:40;30.30;48.00
9448;DHT22;4762;48.128;11.376;2022-08-01T13:26:44;30.00;48.20
9448;DHT22;4762;48.128;11.376;2022-08-01T13:28:49;30.30;48.10
9448;DHT22;4762;48.128;11.376;2022-08-01T13:30:51;29.70;48.30
9448;DHT22;4762;48.128;11.376;2022-08-01T13:32:57;29.80;48.30
9448;DHT22;4762;48.128;11.376;2022-08-01T13:35:02;29.60;49.20
9448;DHT22;4762;48.128;11.376;2022-08-01T13:37:03;30.00;49.00
9448;DHT22;4762;48.128;11.376;2022-08-01T13:39:09;29.30;49.10
9448;DHT22;4762;48.128;11.376;2022-08-01T13:41:17;29.70;47.80
9448;DHT22;4762;48.128;11.376;2022-08-01T13:43:21;29.60;48.60
9448;DHT22;4762;48.128;11.376;2022-08-01T13:45:24;29.20;49.50
9448;DHT22;4762;48.128;11.376;2022-08-01T13:47:26;28.70;51.30
9448;DHT22;4762;48.128;11.376;2022-08-01T13:49:29;28.80;51.40
9448;DHT22;4762;48.128;11.376;2022-08-01T13:51:31;28.50;55.00
9448;DHT22;4762;48.128;11.376;2022-08-01T13:53:34;27.60;60.50
9448;DHT22;4762;48.128;11.376;2022-08-01T13:55:38;26.00;66.70
9448;DHT22;4762;48.128;11.376;2022-08-01T13:57:40;25.10;70.10
9448;DHT22;4762;48.128;11.376;2022-08-01T13:59:43;25.10;69.90
9448;DHT22;4762;48.128;11.376;2022-08-01T14:01:46;25.40;70.40
9448;DHT22;4762;48.128;11.376;2022-08-01T14:03:50;25.40;69.00
9448;DHT22;4762;48.128;11.376;2022-08-01T14:05:53;25.70;64.70
9448;DHT22;4762;48.128;11.376;2022-08-01T14:07:55;25.70;61.80
9448;DHT22;4762;48.128;11.376;2022-08-01T14:09:57;26.00;62.90
9448;DHT22;4762;48.128;11.376;2022-08-01T14:16:51;27.10;58.50
9448;DHT22;4762;48.128;11.376;2022-08-01T14:18:54;27.10;59.00
9448;DHT22;4762;48.128;11.376;2022-08-01T14:20:56;27.20;59.40
9448;DHT22;4762;48.128;11.376;2022-08-01T14:22:59;27.50;59.10
9448;DHT22;4762;48.128;11.376;2022-08-01T14:25:01;27.90;58.60
9448;DHT22;4762;48.128;11.376;2022-08-01T14:27:03;27.70;56.70
9448;DHT22;4762;48.128;11.376;2022-08-01T14:29:07;27.70;57.70
9448;DHT22;4762;48.128;11.376;2022-08-01T14:31:09;27.00;56.40
9448;DHT22;4762;48.128;11.376;2022-08-01T14:33:11;26.60;56.20
9448;DHT22;4762;48.128;11.376;2022-08-01T14:35:13;27.00;57.80
9448;DHT22;4762;48.128;11.376;2022-08-01T14:37:16;27.20;56.90
9448;DHT22;4762;48.128;11.376;2022-08-01T14:39:19;27.50;56.60
9448;DHT22;4762;48.128;11.376;2022-08-01T14:41:22;27.40;56.90
9448;DHT22;4762;48.128;11.376;2022-08-01T14:43:24;27.10;56.40
9448;DHT22;4762;48.128;11.376;2022-08-01T14:45:27;27.20;56.00
9448;DHT22;4762;48.128;11.376;2022-08-01T14:47:29;27.00;58.30
9448;DHT22;4762;48.128;11.376;2022-08-01T14:49:31;26.50;57.00
9448;DHT22;4762;48.128;11.376;2022-08-01T14:51:34;26.60;58.80
9448;DHT22;4762;48.128;11.376;2022-08-01T14:53:36;26.40;58.00
9448;DHT22;4762;48.128;11.376;2022-08-01T14:55:39;26.00;59.40
9448;DHT22;4762;48.128;11.376;2022-08-01T14:57:41;26.20;59.00
9448;DHT22;4762;48.128;11.376;2022-08-01T14:59:43;26.20;58.40
9448;DHT22;4762;48.128;11.376;2022-08-01T15:01:46;26.30;58.60
9448;DHT22;4762;48.128;11.376;2022-08-01T15:03:48;26.10;58.50
9448;DHT22;4762;48.128;11.376;2022-08-01T15:05:50;26.00;63.40
9448;DHT22;4762;48.128;11.376;2022-08-01T15:07:53;25.10;64.60
9448;DHT22;4762;48.128;11.376;2022-08-01T15:09:56;25.10;67.80
9448;DHT22;4762;48.128;11.376;2022-08-01T15:11:59;25.30;66.30
9448;DHT22;4762;48.128;11.376;2022-08-01T15:14:02;25.40;63.00
9448;DHT22;4762;48.128;11.376;2022-08-01T15:16:11;25.00;63.40
9448;DHT22;4762;48.128;11.376;2022-08-01T15:18:16;24.70;64.60
9448;DHT22;4762;48.128;11.376;2022-08-01T15:20:19;24.60;65.00
9448;DHT22;4762;48.128;11.376;2022-08-01T15:22:21;24.50;65.30
9448;DHT22;4762;48.128;11.376;2022-08-01T15:24:24;24.30;66.60
9448;DHT22;4762;48.128;11.376;2022-08-01T15:26:28;24.70;65.70
9448;DHT22;4762;48.128;11.376;2022-08-01T15:28:31;24.40;65.90
9448;DHT22;4762;48.128;11.376;2022-08-01T15:30:34;24.20;66.10
9448;DHT22;4762;48.128;11.376;2022-08-01T15:32:40;24.10;66.50
9448;DHT22;4762;48.128;11.376;2022-08-01T15:34:43;24.20;66.00
9448;DHT22;4762;48.128;11.376;2022-08-01T15:36:45;24.40;65.30
9448;DHT22;4762;48.128;11.376;2022-08-01T15:38:48;24.50;65.60
9448;DHT22;4762;48.128;11.376;2022-08-01T15:40:51;24.10;65.10
9448;DHT22;4762;48.128;11.376;2022-08-01T15:42:58;24.00;66.00
9448;DHT22;4762;48.128;11.376;2022-08-01T15:45:04;24.20;65.50
9448;DHT22;4762;48.128;11.376;2022-08-01T15:47:08;24.40;65.80
9448;DHT22;4762;48.128;11.376;2022-08-01T15:49:11;24.20;65.50
9448;DHT22;4762;48.128;11.376;2022-08-01T15:51:14;24.10;65.70
9448;DHT22;4762;48.128;11.376;2022-08-01T15:53:18;24.10;66.00
9448;DHT22;4762;48.128;11.376;2022-08-01T15:55:20;24.20;65.60
9448;DHT22;4762;48.128;11.376;2022-08-01T15:57:24;24.30;65.80
9448;DHT22;4762;48.128;11.376;2022-08-01T15:59:28;24.10;66.10
9448;DHT22;4762;48.128;11.376;2022-08-01T16:01:40;24.00;66.60